Time;durP1;ratioP1;P1;durP2;ratioP2;P2;SDS_P1;SDS_P2;PMS_P1;PMS_P2;Temp;Humidity;BMP_temperature;BMP_pressure;BME280_temperature;BME280_humidity;BME280_pressure;Samples;Min_cycle;Max_cycle;Signal;HPM_P1;HPM_P2
2023/08/08 00:02:24;;;;;;;2.70;2.05;;;;;;;;;;5074927;28;20036;-81
2023/08/08 00:04:51;;;;;;;3.28;2.60;;;;;;;;;;5057115;28;20053;-81
2023/08/08 00:07:17;;;;;;;2.80;2.05;;;;;;;;;;5073812;28;20063;-81
2023/08/08 00:09:43;;;;;;;5.45;2.75;;;;;;;;;;5057242;28;20084;-81
2023/08/08 00:12:09;;;;;;;3.50;2.60;;;;;;;;;;5073110;28;20044;-82
2023/08/08 00:14:35;;;;;;;3.85;2.22;;;;;;;;;;5073959;28;20053;-81
2023/08/08 00:17:01;;;;;;;3.78;2.45;;;;;;;;;;5074653;28;20152;-81
2023/08/08 00:19:27;;;;;;;3.20;2.83;;;;;;;;;;5073895;28;20048;-82
2023/08/08 00:21:53;;;;;;;3.17;2.88;;;;;;;;;;5074753;28;20128;-81
2023/08/08 00:24:19;;;;;;;2.70;2.50;;;;;;;;;;5073760;28;20048;-82
2023/08/08 00:26:45;;;;;;;3.38;2.75;;;;;;;;;;5074805;28;20040;-81
2023/08/08 00:29:11;;;;;;;2.53;2.40;;;;;;;;;;5073535;28;20141;-81
2023/08/08 00:31:37;;;;;;;3.65;2.30;;;;;;;;;;5074617;28;20472;-81
2023/08/08 00:34:03;;;;;;;2.95;2.60;;;;;;;;;;5073941;28;20047;-81
2023/08/08 00:36:29;;;;;;;3.10;2.80;;;;;;;;;;5057203;28;20051;-81
2023/08/08 00:38:56;;;;;;;3.22;2.78;;;;;;;;;;5073322;28;20480;-81
2023/08/08 00:41:22;;;;;;;3.55;3.13;;;;;;;;;;5073556;28;20158;-81
2023/08/08 00:43:49;;;;;;;3.03;2.83;;;;;;;;;;5073121;28;20136;-81
2023/08/08 00:46:15;;;;;;;4.85;3.25;;;;;;;;;;5073718;28;20055;-82
2023/08/08 00:48:41;;;;;;;5.15;3.35;;;;;;;;;;5074487;28;20084;-81
2023/08/08 00:51:07;;;;;;;3.30;2.65;;;;;;;;;;5073221;28;20561;-81
2023/08/08 00:53:33;;;;;;;5.57;3.40;;;;;;;;;;5073592;28;20083;-81
2023/08/08 00:56:00;;;;;;;5.50;3.65;;;;;;;;;;5074761;28;20048;-81
2023/08/08 00:58:26;;;;;;;4.82;3.35;;;;;;;;;;5073932;28;20403;-81
2023/08/08 01:00:54;;;;;;;3.85;3.28;;;;;;;;;;5074943;28;20041;-81
2023/08/08 01:03:20;;;;;;;5.22;3.08;;;;;;;;;;5056304;28;20264;-81
2023/08/08 01:06:05;;;;;;;5.18;3.55;;;;;;;;;;5073478;28;20423;-81
2023/08/08 01:08:52;;;;;;;3.55;3.17;;;;;;;;;;5057517;28;20369;-81
2023/08/08 01:11:19;;;;;;;4.05;3.75;;;;;;;;;;5073054;28;20040;-81
2023/08/08 01:13:46;;;;;;;4.43;3.30;;;;;;;;;;5073546;28;20045;-81
2023/08/08 01:16:12;;;;;;;5.50;3.15;;;;;;;;;;5073758;28;20044;-80
2023/08/08 01:18:39;;;;;;;8.20;3.45;;;;;;;;;;5073919;28;20044;-81
2023/08/08 01:21:05;;;;;;;4.85;3.50;;;;;;;;;;5073305;28;20146;-81
2023/08/08 01:23:50;;;;;;;7.28;3.80;;;;;;;;;;5073199;28;20055;-81
2023/08/08 01:26:17;;;;;;;3.75;3.33;;;;;;;;;;5072354;28;20218;-81
2023/08/08 01:28:44;;;;;;;3.85;3.55;;;;;;;;;;5072583;28;20049;-81
2023/08/08 01:31:10;;;;;;;4.20;3.75;;;;;;;;;;5056334;28;20080;-81
2023/08/08 01:33:37;;;;;;;4.05;3.85;;;;;;;;;;5073019;28;20451;-81
2023/08/08 01:36:05;;;;;;;7.40;3.90;;;;;;;;;;5073242;28;20084;-80
2023/08/08 01:38:37;;;;;;;4.22;3.80;;;;;;;;;;5056125;28;20048;-81
2023/08/08 01:41:05;;;;;;;6.88;4.00;;;;;;;;;;5073992;28;20040;-81
2023/08/08 01:43:31;;;;;;;6.75;4.20;;;;;;;;;;5072402;28;20053;-81
2023/08/08 01:45:57;;;;;;;5.65;3.92;;;;;;;;;;5073835;28;20388;-80
2023/08/08 01:48:23;;;;;;;6.78;4.20;;;;;;;;;;5074214;28;20044;-80
2023/08/08 01:50:49;;;;;;;4.13;3.72;;;;;;;;;;5072964;28;20378;-81
2023/08/08 01:53:15;;;;;;;6.18;4.22;;;;;;;;;;5072848;28;20048;-81
2023/08/08 01:55:41;;;;;;;6.30;4.30;;;;;;;;;;5059154;28;20052;-81
2023/08/08 01:58:07;;;;;;;7.18;4.30;;;;;;;;;;5059657;28;20056;-81
2023/08/08 02:00:33;;;;;;;7.65;4.25;;;;;;;;;;5076597;28;20550;-81
2023/08/08 02:03:00;;;;;;;6.20;4.05;;;;;;;;;;5059535;28;20080;-82
2023/08/08 02:05:26;;;;;;;9.57;4.43;;;;;;;;;;5058538;28;20056;-80
2023/08/08 02:07:52;;;;;;;6.82;4.38;;;;;;;;;;5077309;28;20048;-80
2023/08/08 02:10:18;;;;;;;7.32;4.43;;;;;;;;;;5076333;28;20062;-81
2023/08/08 02:12:44;;;;;;;6.95;4.70;;;;;;;;;;5075439;28;20048;-81
2023/08/08 02:15:11;;;;;;;5.68;3.90;;;;;;;;;;5076120;28;20044;-81
2023/08/08 02:17:38;;;;;;;5.60;4.30;;;;;;;;;;5076794;28;20053;-80
2023/08/08 02:20:05;;;;;;;4.80;4.10;;;;;;;;;;5059350;28;20052;-80
2023/08/08 02:22:31;;;;;;;7.40;3.70;;;;;;;;;;5075857;28;20479;-80
2023/08/08 02:24:57;;;;;;;6.63;4.25;;;;;;;;;;5076076;28;20052;-80
2023/08/08 02:27:23;;;;;;;6.78;4.40;;;;;;;;;;5076880;28;20127;-80
2023/08/08 02:29:50;;;;;;;7.68;4.40;;;;;;;;;;5075984;28;20048;-80
2023/08/08 02:32:16;;;;;;;8.60;4.93;;;;;;;;;;5075845;28;20049;-81
2023/08/08 02:34:42;;;;;;;6.70;4.80;;;;;;;;;;5075507;28;20048;-80
2023/08/08 02:37:08;;;;;;;9.18;4.82;;;;;;;;;;5075752;28;20118;-80
2023/08/08 02:39:34;;;;;;;8.55;4.32;;;;;;;;;;5076506;28;20484;-81
2023/08/08 02:42:00;;;;;;;7.20;4.60;;;;;;;;;;5074908;28;20122;-81
2023/08/08 02:44:26;;;;;;;6.07;4.35;;;;;;;;;;5075658;28;20094;-80
2023/08/08 02:46:52;;;;;;;7.47;4.93;;;;;;;;;;5075325;28;20052;-80
2023/08/08 02:49:18;;;;;;;7.15;4.93;;;;;;;;;;5075280;28;20142;-81
2023/08/08 02:51:44;;;;;;;13.40;5.50;;;;;;;;;;5075040;28;20041;-81
2023/08/08 02:54:10;;;;;;;8.57;5.15;;;;;;;;;;5075381;28;20499;-80
2023/08/08 02:56:36;;;;;;;9.07;5.35;;;;;;;;;;5059274;28;20148;-80
2023/08/08 02:59:02;;;;;;;6.53;4.95;;;;;;;;;;5076466;28;20045;-80
2023/08/08 03:01:29;;;;;;;7.72;5.05;;;;;;;;;;5075604;28;20049;-80
2023/08/08 03:03:55;;;;;;;7.70;5.35;;;;;;;;;;5075978;28;20056;-80
2023/08/08 03:06:21;;;;;;;9.98;4.95;;;;;;;;;;5075115;28;20048;-79
2023/08/08 03:08:47;;;;;;;9.55;4.68;;;;;;;;;;5058565;28;20056;-81
2023/08/08 03:11:13;;;;;;;5.93;4.20;;;;;;;;;;5074904;28;20137;-80
2023/08/08 03:13:39;;;;;;;5.70;4.63;;;;;;;;;;5074837;28;20044;-81
2023/08/08 03:16:06;;;;;;;9.35;4.80;;;;;;;;;;5074100;28;20127;-81
2023/08/08 03:18:32;;;;;;;8.75;3.90;;;;;;;;;;5074249;28;20071;-81
2023/08/08 03:20:58;;;;;;;7.88;4.38;;;;;;;;;;5057636;28;20037;-81
2023/08/08 03:23:24;;;;;;;9.25;4.85;;;;;;;;;;5074820;28;20045;-80
2023/08/08 03:25:51;;;;;;;10.25;4.72;;;;;;;;;;5075579;28;20055;-80
2023/08/08 03:28:17;;;;;;;9.07;4.65;;;;;;;;;;5074745;28;20051;-80
2023/08/08 03:30:43;;;;;;;9.23;4.70;;;;;;;;;;5074504;28;20054;-80
2023/08/08 03:33:09;;;;;;;11.63;4.47;;;;;;;;;;5074727;28;20052;-80
2023/08/08 03:35:35;;;;;;;7.35;3.80;;;;;;;;;;5074630;28;20044;-81
2023/08/08 03:38:02;;;;;;;4.05;3.58;;;;;;;;;;5075823;28;20045;-80
2023/08/08 03:40:28;;;;;;;7.38;3.97;;;;;;;;;;5074432;28;20067;-81
2023/08/08 03:42:54;;;;;;;5.53;4.00;;;;;;;;;;5074019;28;20045;-81
2023/08/08 03:45:20;;;;;;;7.97;4.28;;;;;;;;;;5074268;28;20048;-80
2023/08/08 03:47:47;;;;;;;4.95;4.22;;;;;;;;;;5074085;28;20055;-81
2023/08/08 03:50:13;;;;;;;9.27;4.72;;;;;;;;;;5074367;28;20053;-80
2023/08/08 03:52:39;;;;;;;9.00;3.97;;;;;;;;;;5073819;28;20052;-80
2023/08/08 03:55:05;;;;;;;11.80;4.25;;;;;;;;;;5056998;28;20047;-80
2023/08/08 03:57:32;;;;;;;7.97;4.50;;;;;;;;;;5074462;28;20044;-80
2023/08/08 03:59:58;;;;;;;7.57;3.63;;;;;;;;;;5057406;28;20101;-80
2023/08/08 04:02:25;;;;;;;7.82;4.03;;;;;;;;;;5073892;28;20044;-80
2023/08/08 04:04:52;;;;;;;7.43;3.92;;;;;;;;;;5056776;28;20481;-81
2023/08/08 04:07:18;;;;;;;8.55;4.20;;;;;;;;;;5073683;28;20055;-80
2023/08/08 04:09:44;;;;;;;7.25;3.65;;;;;;;;;;5074003;28;20098;-80
2023/08/08 04:12:10;;;;;;;8.15;4.07;;;;;;;;;;5073249;28;20040;-81
2023/08/08 04:14:36;;;;;;;7.22;4.18;;;;;;;;;;5073592;28;20553;-80
2023/08/08 04:17:02;;;;;;;8.63;3.63;;;;;;;;;;5074762;28;20457;-80
2023/08/08 04:19:29;;;;;;;9.32;3.78;;;;;;;;;;5073749;28;20123;-81
2023/08/08 04:21:55;;;;;;;7.63;4.38;;;;;;;;;;5057210;28;20137;-81
2023/08/08 04:24:21;;;;;;;8.20;3.92;;;;;;;;;;5073893;28;20541;-82
2023/08/08 04:26:47;;;;;;;9.20;3.85;;;;;;;;;;5073566;28;20488;-81
2023/08/08 04:29:13;;;;;;;7.03;3.83;;;;;;;;;;5057132;28;20067;-81
2023/08/08 04:31:39;;;;;;;6.30;4.03;;;;;;;;;;5073912;28;20050;-81
2023/08/08 04:34:05;;;;;;;5.95;4.05;;;;;;;;;;5073570;28;20133;-81
2023/08/08 04:36:31;;;;;;;13.27;3.55;;;;;;;;;;5056520;28;20378;-81
2023/08/08 04:38:57;;;;;;;6.57;3.67;;;;;;;;;;5073419;28;20044;-82
2023/08/08 04:41:23;;;;;;;11.18;5.03;;;;;;;;;;5056612;28;20049;-81
2023/08/08 04:43:50;;;;;;;8.43;4.13;;;;;;;;;;5072938;28;20080;-81
2023/08/08 04:46:16;;;;;;;8.95;3.58;;;;;;;;;;5073181;28;20052;-82
2023/08/08 04:48:42;;;;;;;6.10;3.22;;;;;;;;;;5074031;28;20481;-81
2023/08/08 04:51:08;;;;;;;4.63;3.15;;;;;;;;;;5073466;28;20052;-81
2023/08/08 04:53:34;;;;;;;6.38;3.17;;;;;;;;;;5073071;28;20055;-81
2023/08/08 04:56:01;;;;;;;7.30;2.85;;;;;;;;;;5074269;28;20194;-81
2023/08/08 04:58:27;;;;;;;9.27;3.08;;;;;;;;;;5073706;28;20056;-82
2023/08/08 05:00:54;;;;;;;7.90;3.10;;;;;;;;;;5073110;28;20052;-82
2023/08/08 05:03:21;;;;;;;6.25;2.90;;;;;;;;;;5056592;28;20052;-81
2023/08/08 05:05:47;;;;;;;7.90;3.47;;;;;;;;;;5074460;28;20056;-82
2023/08/08 05:08:14;;;;;;;5.45;2.95;;;;;;;;;;5074121;28;20098;-82
2023/08/08 05:10:40;;;;;;;6.22;3.05;;;;;;;;;;5073024;28;20055;-82
2023/08/08 05:13:06;;;;;;;8.23;2.47;;;;;;;;;;5072452;28;20395;-82
2023/08/08 05:15:32;;;;;;;7.38;2.88;;;;;;;;;;5073508;28;20076;-82
2023/08/08 05:17:59;;;;;;;7.90;2.90;;;;;;;;;;5073959;28;20131;-82
2023/08/08 05:20:25;;;;;;;7.47;2.33;;;;;;;;;;5073471;28;20071;-82
2023/08/08 05:22:52;;;;;;;7.95;2.45;;;;;;;;;;5072855;28;20041;-82
2023/08/08 05:25:19;;;;;;;4.68;2.10;;;;;;;;;;5074134;28;20070;-82
2023/08/08 05:27:45;;;;;;;5.28;2.28;;;;;;;;;;5072892;28;20481;-82
2023/08/08 05:30:11;;;;;;;7.38;1.88;;;;;;;;;;5077136;28;20051;-82
2023/08/08 05:32:37;;;;;;;4.03;1.48;;;;;;;;;;5077828;28;20053;-82
2023/08/08 05:35:04;;;;;;;3.67;1.77;;;;;;;;;;5078002;28;20045;-82
2023/08/08 05:37:30;;;;;;;5.00;1.42;;;;;;;;;;5076710;28;20059;-82
2023/08/08 05:39:56;;;;;;;8.00;1.65;;;;;;;;;;5060270;28;20094;-83
2023/08/08 05:42:22;;;;;;;4.80;1.52;;;;;;;;;;5076072;28;20080;-83
2023/08/08 05:44:48;;;;;;;4.40;1.42;;;;;;;;;;5077579;28;20409;-82
2023/08/08 05:47:14;;;;;;;6.28;1.88;;;;;;;;;;5060107;28;20053;-82
2023/08/08 05:49:43;;;;;;;6.28;1.38;;;;;;;;;;5076956;28;20036;-82
2023/08/08 05:52:10;;;;;;;4.63;1.33;;;;;;;;;;5076035;28;20052;-82
2023/08/08 05:54:36;;;;;;;3.88;1.30;;;;;;;;;;5076576;28;20131;-83
2023/08/08 05:57:03;;;;;;;3.63;1.27;;;;;;;;;;5043556;28;20045;-82
2023/08/08 05:59:29;;;;;;;4.90;1.40;;;;;;;;;;5076335;28;20105;-82
2023/08/08 06:01:55;;;;;;;7.95;1.10;;;;;;;;;;5076293;28;20037;-83
2023/08/08 06:04:21;;;;;;;4.47;1.30;;;;;;;;;;5075696;28;20485;-83
2023/08/08 06:06:48;;;;;;;5.85;1.00;;;;;;;;;;5076148;28;20056;-83
2023/08/08 06:09:15;;;;;;;4.85;0.98;;;;;;;;;;5076261;28;20404;-83
2023/08/08 06:11:41;;;;;;;3.03;0.80;;;;;;;;;;5076185;28;20052;-83
2023/08/08 06:14:07;;;;;;;2.00;0.80;;;;;;;;;;5076679;28;20048;-83
2023/08/08 06:16:33;;;;;;;3.47;0.82;;;;;;;;;;5076024;28;20097;-83
2023/08/08 06:18:59;;;;;;;5.68;0.85;;;;;;;;;;5076962;28;20480;-82
2023/08/08 06:21:26;;;;;;;7.75;1.45;;;;;;;;;;5075938;28;20502;-83
2023/08/08 06:23:54;;;;;;;3.53;1.00;;;;;;;;;;5075993;28;20057;-83
2023/08/08 06:26:21;;;;;;;4.07;0.68;;;;;;;;;;5076038;28;20045;-83
2023/08/08 06:28:47;;;;;;;5.78;1.00;;;;;;;;;;5075885;28;20110;-83
2023/08/08 06:31:14;;;;;;;3.67;0.82;;;;;;;;;;5075493;28;20051;-83
2023/08/08 06:33:40;;;;;;;3.10;0.70;;;;;;;;;;5075702;28;20045;-83
2023/08/08 06:36:06;;;;;;;3.88;1.02;;;;;;;;;;5076717;28;20082;-83
2023/08/08 06:38:33;;;;;;;4.82;0.60;;;;;;;;;;5075815;28;20056;-83
2023/08/08 06:41:00;;;;;;;6.03;0.80;;;;;;;;;;5059191;28;20449;-83
2023/08/08 06:43:26;;;;;;;3.67;0.70;;;;;;;;;;5075587;28;20079;-83
2023/08/08 06:45:52;;;;;;;7.07;1.00;;;;;;;;;;5075711;28;20500;-83
2023/08/08 06:48:18;;;;;;;3.92;0.50;;;;;;;;;;5076797;28;20442;-82
2023/08/08 06:50:45;;;;;;;3.75;1.00;;;;;;;;;;5075088;28;20048;-83
2023/08/08 06:53:11;;;;;;;5.82;0.77;;;;;;;;;;5075343;28;20048;-83
2023/08/08 06:55:37;;;;;;;3.13;0.38;;;;;;;;;;5075459;28;20048;-84
2023/08/08 06:58:03;;;;;;;4.18;0.32;;;;;;;;;;5075393;28;20045;-83
2023/08/08 07:00:29;;;;;;;2.60;0.30;;;;;;;;;;5075571;28;20094;-83
2023/08/08 07:02:55;;;;;;;4.10;0.38;;;;;;;;;;5075203;28;20044;-83
2023/08/08 07:05:25;;;;;;;3.13;0.40;;;;;;;;;;5072255;28;20094;-83
2023/08/08 07:07:52;;;;;;;3.95;0.30;;;;;;;;;;5108242;28;20063;-83
2023/08/08 07:10:18;;;;;;;5.13;0.50;;;;;;;;;;5058200;28;20049;-83
2023/08/08 07:12:44;;;;;;;2.15;0.30;;;;;;;;;;5074433;28;20495;-83
2023/08/08 07:15:11;;;;;;;3.97;0.52;;;;;;;;;;5075080;28;20052;-83
2023/08/08 07:17:37;;;;;;;4.20;0.38;;;;;;;;;;5075011;28;20067;-82
2023/08/08 07:20:03;;;;;;;3.55;0.50;;;;;;;;;;5073749;28;20480;-84
2023/08/08 07:22:29;;;;;;;3.00;0.40;;;;;;;;;;5072577;28;20051;-83
2023/08/08 07:24:55;;;;;;;1.95;0.20;;;;;;;;;;5075417;28;20048;-83
2023/08/08 07:27:21;;;;;;;5.15;0.22;;;;;;;;;;5075137;28;20381;-82
2023/08/08 07:29:48;;;;;;;2.85;0.20;;;;;;;;;;5074404;28;20063;-83
2023/08/08 07:32:14;;;;;;;1.48;0.22;;;;;;;;;;5075078;28;20403;-82
2023/08/08 07:34:40;;;;;;;1.63;0.20;;;;;;;;;;5074294;28;20127;-83
2023/08/08 07:37:06;;;;;;;2.47;0.28;;;;;;;;;;5075689;28;20041;-82
2023/08/08 07:39:32;;;;;;;2.55;0.20;;;;;;;;;;5074402;28;20049;-82
2023/08/08 07:41:58;;;;;;;4.03;0.20;;;;;;;;;;5073794;28;20052;-82
2023/08/08 07:44:24;;;;;;;4.70;0.20;;;;;;;;;;5073881;28;20050;-83
2023/08/08 07:46:50;;;;;;;1.63;0.20;;;;;;;;;;5073995;28;20040;-82
2023/08/08 07:49:16;;;;;;;1.92;0.20;;;;;;;;;;5074554;28;20141;-82
2023/08/08 07:51:42;;;;;;;2.63;0.57;;;;;;;;;;5056805;28;20044;-82
2023/08/08 07:54:10;;;;;;;3.47;0.20;;;;;;;;;;5073762;28;20048;-82
2023/08/08 07:56:36;;;;;;;2.47;0.20;;;;;;;;;;5072866;28;20060;-83
2023/08/08 07:59:03;;;;;;;0.85;0.20;;;;;;;;;;5073872;28;20489;-82
2023/08/08 08:01:29;;;;;;;3.65;0.30;;;;;;;;;;5070300;28;20090;-82
2023/08/08 08:03:56;;;;;;;2.45;0.20;;;;;;;;;;5073597;28;20045;-83
2023/08/08 08:06:22;;;;;;;1.75;0.20;;;;;;;;;;5072401;28;20059;-82
2023/08/08 08:08:48;;;;;;;2.30;0.22;;;;;;;;;;5072407;28;20441;-82
2023/08/08 08:11:16;;;;;;;3.80;0.20;;;;;;;;;;5076526;28;20056;-81
2023/08/08 08:13:42;;;;;;;2.15;0.20;;;;;;;;;;5071227;28;20052;-82
2023/08/08 08:16:08;;;;;;;2.72;0.20;;;;;;;;;;5072247;28;20060;-82
2023/08/08 08:18:34;;;;;;;2.15;0.20;;;;;;;;;;5075764;28;20049;-81
2023/08/08 08:21:01;;;;;;;1.50;0.20;;;;;;;;;;5070508;28;20044;-82
2023/08/08 08:23:27;;;;;;;1.42;0.20;;;;;;;;;;5073461;28;20067;-82
2023/08/08 08:25:53;;;;;;;3.33;0.22;;;;;;;;;;5081179;28;20044;-82
2023/08/08 08:28:19;;;;;;;1.50;0.10;;;;;;;;;;5074279;28;20041;-82
2023/08/08 08:30:45;;;;;;;2.88;0.40;;;;;;;;;;5074075;28;20511;-82
2023/08/08 08:33:11;;;;;;;0.98;0.20;;;;;;;;;;5071372;28;20048;-83
2023/08/08 08:35:37;;;;;;;1.83;0.10;;;;;;;;;;5055723;28;20131;-82
2023/08/08 08:38:04;;;;;;;0.82;0.10;;;;;;;;;;5074117;28;20090;-82
2023/08/08 08:40:36;;;;;;;1.98;0.15;;;;;;;;;;5073305;28;20049;-83
2023/08/08 08:43:03;;;;;;;4.97;0.10;;;;;;;;;;5073966;28;20093;-82
2023/08/08 08:45:30;;;;;;;1.05;0.10;;;;;;;;;;5073559;28;20051;-82
2023/08/08 08:47:57;;;;;;;2.58;0.10;;;;;;;;;;5073228;28;20085;-82
2023/08/08 08:50:25;;;;;;;3.22;0.20;;;;;;;;;;5073622;28;20508;-82
2023/08/08 08:52:51;;;;;;;2.05;0.20;;;;;;;;;;5073813;28;20076;-82
2023/08/08 08:55:17;;;;;;;3.28;0.40;;;;;;;;;;5073540;28;20408;-82
2023/08/08 08:57:44;;;;;;;1.17;0.20;;;;;;;;;;5073430;28;20048;-81
2023/08/08 09:00:10;;;;;;;2.85;0.20;;;;;;;;;;5072803;28;20056;-81
2023/08/08 09:02:37;;;;;;;1.33;0.20;;;;;;;;;;5073685;28;20052;-81
2023/08/08 09:05:03;;;;;;;1.17;0.13;;;;;;;;;;5079035;28;20110;-81
2023/08/08 09:07:30;;;;;;;1.85;0.20;;;;;;;;;;5063189;28;20109;-82
2023/08/08 09:09:56;;;;;;;1.67;0.20;;;;;;;;;;5079998;28;20127;-81
2023/08/08 09:12:24;;;;;;;1.35;0.20;;;;;;;;;;5080195;28;20044;-82
2023/08/08 09:14:54;;;;;;;3.42;0.20;;;;;;;;;;5080134;28;20185;-82
2023/08/08 09:17:21;;;;;;;3.33;0.17;;;;;;;;;;5079758;28;20044;-82
2023/08/08 09:19:47;;;;;;;3.33;0.20;;;;;;;;;;5080657;28;20500;-81
2023/08/08 09:22:13;;;;;;;1.30;0.20;;;;;;;;;;5080483;28;20044;-81
2023/08/08 09:24:41;;;;;;;1.13;0.20;;;;;;;;;;5080527;28;20055;-82
2023/08/08 09:27:10;;;;;;;3.72;0.20;;;;;;;;;;5080323;28;20067;-82
2023/08/08 09:29:37;;;;;;;2.55;0.20;;;;;;;;;;5113004;28;20049;-82
2023/08/08 09:32:04;;;;;;;1.55;0.20;;;;;;;;;;5078879;28;20044;-82
2023/08/08 09:34:30;;;;;;;2.65;0.20;;;;;;;;;;5079856;28;20110;-82
2023/08/08 09:36:56;;;;;;;1.45;0.10;;;;;;;;;;5080460;28;20048;-82
2023/08/08 09:39:22;;;;;;;1.90;0.43;;;;;;;;;;5079255;28;20044;-82
2023/08/08 09:41:48;;;;;;;2.13;0.20;;;;;;;;;;5079274;28;20085;-81
2023/08/08 09:44:14;;;;;;;2.28;0.30;;;;;;;;;;5078676;28;20473;-82
2023/08/08 09:46:40;;;;;;;1.63;0.20;;;;;;;;;;5060781;28;20132;-82
2023/08/08 09:49:07;;;;;;;1.90;0.10;;;;;;;;;;5059664;28;20051;-82
2023/08/08 09:51:34;;;;;;;2.28;0.25;;;;;;;;;;5093100;28;20393;-81
2023/08/08 09:54:00;;;;;;;1.42;0.20;;;;;;;;;;5059356;28;20045;-81
2023/08/08 09:56:26;;;;;;;1.75;0.20;;;;;;;;;;5043606;28;20053;-82
2023/08/08 09:58:53;;;;;;;3.80;0.52;;;;;;;;;;5059294;28;20056;-81
2023/08/08 10:01:20;;;;;;;2.22;0.20;;;;;;;;;;5059411;28;20095;-81
2023/08/08 10:03:47;;;;;;;1.73;0.10;;;;;;;;;;5060447;28;20131;-81
2023/08/08 10:06:14;;;;;;;3.05;0.20;;;;;;;;;;5060545;28;20116;-82
2023/08/08 10:08:40;;;;;;;1.25;0.20;;;;;;;;;;5059451;28;20049;-81
2023/08/08 10:11:10;;;;;;;2.60;0.20;;;;;;;;;;5060598;28;20037;-81
2023/08/08 10:13:36;;;;;;;1.35;0.30;;;;;;;;;;5060247;28;20114;-82
2023/08/08 10:16:09;;;;;;;1.40;0.40;;;;;;;;;;5057357;28;20056;-82
2023/08/08 10:18:35;;;;;;;2.30;0.20;;;;;;;;;;5063898;28;20497;-82
2023/08/08 10:21:04;;;;;;;2.90;0.17;;;;;;;;;;5076846;28;20431;-82
2023/08/08 10:23:36;;;;;;;1.77;0.20;;;;;;;;;;5076663;28;20127;-81
2023/08/08 10:26:02;;;;;;;2.72;0.40;;;;;;;;;;5077058;28;20117;-82
2023/08/08 10:28:29;;;;;;;2.47;0.20;;;;;;;;;;5059517;28;20049;-82
2023/08/08 10:30:56;;;;;;;1.60;0.20;;;;;;;;;;5059568;28;20389;-82
2023/08/08 10:33:25;;;;;;;3.50;0.20;;;;;;;;;;5076257;28;20094;-82
2023/08/08 10:35:57;;;;;;;1.95;0.20;;;;;;;;;;5076979;28;20123;-82
2023/08/08 10:38:23;;;;;;;2.00;0.15;;;;;;;;;;5076597;28;20040;-82
2023/08/08 10:40:55;;;;;;;1.95;0.30;;;;;;;;;;5075091;28;20048;-83
2023/08/08 10:43:26;;;;;;;2.65;0.30;;;;;;;;;;5075985;28;20048;-83
2023/08/08 10:45:52;;;;;;;3.53;0.20;;;;;;;;;;5076272;28;20036;-82
2023/08/08 10:48:20;;;;;;;3.30;0.30;;;;;;;;;;5076080;28;20400;-82
2023/08/08 10:50:47;;;;;;;0.60;0.10;;;;;;;;;;5075035;28;20127;-82
2023/08/08 10:53:13;;;;;;;3.65;0.30;;;;;;;;;;5076065;28;20450;-81
2023/08/08 10:55:39;;;;;;;2.22;0.40;;;;;;;;;;5074721;28;20052;-82
2023/08/08 10:58:07;;;;;;;1.45;0.30;;;;;;;;;;5073240;28;20037;-82
2023/08/08 11:00:34;;;;;;;1.63;0.30;;;;;;;;;;5074284;28;20045;-82
2023/08/08 11:03:01;;;;;;;1.25;0.20;;;;;;;;;;5074850;28;20420;-82
2023/08/08 11:05:31;;;;;;;3.40;0.20;;;;;;;;;;5075659;28;20060;-82
2023/08/08 11:07:57;;;;;;;1.30;0.20;;;;;;;;;;5078177;28;20408;-81
2023/08/08 11:10:23;;;;;;;2.72;0.30;;;;;;;;;;5075380;28;20080;-82
2023/08/08 11:12:54;;;;;;;1.17;0.20;;;;;;;;;;5075032;28;20097;-82
2023/08/08 11:15:20;;;;;;;1.83;0.20;;;;;;;;;;5075015;28;20101;-81
2023/08/08 11:17:46;;;;;;;2.22;0.20;;;;;;;;;;5072093;28;20384;-81
2023/08/08 11:20:12;;;;;;;1.10;0.40;;;;;;;;;;5075490;28;20045;-85
2023/08/08 11:22:38;;;;;;;1.05;0.20;;;;;;;;;;5075551;28;20043;-80
2023/08/08 11:25:07;;;;;;;0.90;0.20;;;;;;;;;;5074041;28;20127;-82
2023/08/08 11:27:33;;;;;;;3.17;0.20;;;;;;;;;;5071840;28;20048;-82
2023/08/08 11:29:59;;;;;;;1.42;0.20;;;;;;;;;;5075757;28;20131;-81
2023/08/08 11:32:28;;;;;;;0.50;0.13;;;;;;;;;;5075621;28;20036;-82
2023/08/08 11:34:55;;;;;;;2.45;0.20;;;;;;;;;;5075613;28;20044;-81
2023/08/08 11:37:22;;;;;;;2.25;0.15;;;;;;;;;;5075453;28;20480;-82
2023/08/08 11:39:48;;;;;;;1.30;0.28;;;;;;;;;;5075081;28;20091;-82
2023/08/08 11:42:14;;;;;;;2.83;0.20;;;;;;;;;;5074538;28;20511;-81
2023/08/08 11:44:41;;;;;;;3.03;0.20;;;;;;;;;;5074680;28;20062;-81
2023/08/08 11:47:07;;;;;;;2.75;0.20;;;;;;;;;;5074160;28;20058;-81
2023/08/08 11:49:40;;;;;;;1.73;0.20;;;;;;;;;;5075276;28;20129;-81
2023/08/08 11:52:07;;;;;;;1.73;0.20;;;;;;;;;;5075617;28;20392;-81
2023/08/08 11:54:33;;;;;;;2.65;0.20;;;;;;;;;;5074940;28;20058;-81
2023/08/08 11:57:01;;;;;;;2.28;0.20;;;;;;;;;;5074672;28;20051;-82
2023/08/08 11:59:27;;;;;;;1.48;0.20;;;;;;;;;;5075850;28;20373;-81
2023/08/08 12:01:53;;;;;;;3.08;0.22;;;;;;;;;;5074642;28;20127;-82
2023/08/08 12:04:20;;;;;;;3.00;0.20;;;;;;;;;;5073950;28;20399;-81
2023/08/08 12:06:46;;;;;;;1.20;0.20;;;;;;;;;;5074897;28;20534;-81
2023/08/08 12:09:13;;;;;;;2.50;0.20;;;;;;;;;;5074762;28;20106;-81
2023/08/08 12:11:39;;;;;;;1.95;0.40;;;;;;;;;;5073977;28;20053;-82
2023/08/08 12:14:08;;;;;;;2.45;0.30;;;;;;;;;;5073636;28;20054;-82
2023/08/08 12:16:34;;;;;;;1.70;0.30;;;;;;;;;;5074996;28;20052;-82
2023/08/08 12:19:05;;;;;;;2.50;0.50;;;;;;;;;;5075070;28;20047;-82
2023/08/08 12:21:33;;;;;;;2.30;0.30;;;;;;;;;;5073998;28;20079;-81
2023/08/08 12:23:59;;;;;;;1.48;0.30;;;;;;;;;;5075060;28;20044;-81
2023/08/08 12:26:25;;;;;;;1.25;0.30;;;;;;;;;;5074963;28;20048;-82
2023/08/08 12:28:53;;;;;;;4.03;0.30;;;;;;;;;;5073941;28;20052;-81
2023/08/08 12:31:19;;;;;;;1.88;0.20;;;;;;;;;;5073647;28;20063;-82
2023/08/08 12:33:45;;;;;;;1.38;0.40;;;;;;;;;;5073970;28;20037;-82
2023/08/08 12:36:12;;;;;;;2.40;0.45;;;;;;;;;;5073498;28;20617;-83
2023/08/08 12:38:38;;;;;;;1.73;0.30;;;;;;;;;;5074526;28;20080;-82
2023/08/08 12:41:04;;;;;;;3.67;0.40;;;;;;;;;;5074598;28;20052;-83
2023/08/08 12:43:30;;;;;;;1.38;0.22;;;;;;;;;;5073454;28;20048;-81
2023/08/08 12:45:56;;;;;;;1.95;0.38;;;;;;;;;;5074450;28;20040;-82
2023/08/08 12:48:22;;;;;;;2.33;0.40;;;;;;;;;;5074494;28;20141;-82
2023/08/08 12:50:48;;;;;;;1.67;0.50;;;;;;;;;;5073351;28;20048;-82
2023/08/08 12:53:15;;;;;;;1.00;0.20;;;;;;;;;;5073489;28;20504;-83
2023/08/08 12:55:41;;;;;;;0.73;0.20;;;;;;;;;;5056944;28;20055;-82
2023/08/08 12:58:07;;;;;;;2.55;0.25;;;;;;;;;;5073399;28;20052;-82
2023/08/08 13:00:33;;;;;;;1.30;0.22;;;;;;;;;;5074385;28;20048;-82
2023/08/08 13:02:59;;;;;;;2.53;0.20;;;;;;;;;;5072721;28;20135;-82
2023/08/08 13:05:25;;;;;;;0.63;0.10;;;;;;;;;;5072924;28;20048;-82
2023/08/08 13:07:52;;;;;;;1.00;0.10;;;;;;;;;;5074076;28;20049;-82
2023/08/08 13:10:19;;;;;;;2.10;0.10;;;;;;;;;;5074751;28;20050;-82
2023/08/08 13:12:46;;;;;;;0.60;0.20;;;;;;;;;;5074066;28;20056;-82
2023/08/08 13:15:13;;;;;;;0.85;0.13;;;;;;;;;;5073564;28;20059;-82
2023/08/08 13:17:39;;;;;;;0.75;0.13;;;;;;;;;;5069267;28;20048;-82
2023/08/08 13:20:05;;;;;;;1.35;0.20;;;;;;;;;;5054733;28;20675;-82
2023/08/08 13:22:31;;;;;;;1.50;0.20;;;;;;;;;;5075362;28;20047;-83
2023/08/08 13:24:57;;;;;;;2.55;0.20;;;;;;;;;;5058015;28;20565;-82
2023/08/08 13:27:23;;;;;;;1.08;0.20;;;;;;;;;;5072189;28;20488;-83
2023/08/08 13:29:49;;;;;;;2.08;0.20;;;;;;;;;;5073801;28;20044;-82
2023/08/08 13:32:16;;;;;;;1.10;0.20;;;;;;;;;;5072848;28;20041;-83
2023/08/08 13:34:42;;;;;;;1.05;0.20;;;;;;;;;;5075788;28;20043;-84
2023/08/08 13:37:08;;;;;;;2.67;0.20;;;;;;;;;;5072721;28;20514;-82
2023/08/08 13:39:34;;;;;;;0.88;0.20;;;;;;;;;;5072857;28;20094;-82
2023/08/08 13:42:00;;;;;;;2.80;0.22;;;;;;;;;;5071781;28;20051;-83
2023/08/08 13:44:26;;;;;;;1.25;0.30;;;;;;;;;;5072560;28;20055;-82
2023/08/08 13:46:52;;;;;;;1.95;0.20;;;;;;;;;;5039960;28;20097;-81
2023/08/08 13:49:18;;;;;;;1.13;0.25;;;;;;;;;;5073811;28;20056;-82
2023/08/08 13:51:44;;;;;;;2.28;0.20;;;;;;;;;;5077282;28;20119;-83
2023/08/08 13:54:10;;;;;;;1.67;0.20;;;;;;;;;;5065883;28;20056;-82
2023/08/08 13:56:36;;;;;;;3.03;0.30;;;;;;;;;;5077413;28;20508;-83
2023/08/08 13:59:03;;;;;;;2.35;0.30;;;;;;;;;;5077866;28;20105;-84
2023/08/08 14:01:29;;;;;;;3.22;0.60;;;;;;;;;;5076684;28;20040;-84
2023/08/08 14:03:55;;;;;;;2.88;0.30;;;;;;;;;;5070926;28;20048;-83
2023/08/08 14:06:21;;;;;;;3.45;0.30;;;;;;;;;;5074733;28;20055;-83
2023/08/08 14:08:48;;;;;;;5.30;0.30;;;;;;;;;;5057323;28;20090;-83
2023/08/08 14:11:14;;;;;;;1.92;0.30;;;;;;;;;;5086073;28;20059;-84
2023/08/08 14:13:40;;;;;;;0.93;0.20;;;;;;;;;;5085912;28;20051;-84
2023/08/08 14:16:07;;;;;;;1.92;0.30;;;;;;;;;;5076602;28;20394;-84
2023/08/08 14:18:33;;;;;;;3.00;0.40;;;;;;;;;;5077376;28;20049;-84
2023/08/08 14:21:00;;;;;;;2.13;0.30;;;;;;;;;;5077190;28;20040;-85
2023/08/08 14:23:26;;;;;;;1.67;0.28;;;;;;;;;;5076108;28;20054;-85
2023/08/08 14:25:52;;;;;;;2.10;0.20;;;;;;;;;;5077514;28;20055;-85
2023/08/08 14:28:18;;;;;;;3.58;0.30;;;;;;;;;;5078881;28;20089;-85
2023/08/08 14:30:44;;;;;;;1.25;0.30;;;;;;;;;;5077429;28;20052;-85
2023/08/08 14:33:13;;;;;;;3.97;0.50;;;;;;;;;;5076160;28;20041;-85
2023/08/08 14:35:39;;;;;;;2.50;0.40;;;;;;;;;;5076900;28;20072;-85
2023/08/08 14:38:05;;;;;;;3.03;0.40;;;;;;;;;;5077903;28;20051;-84
2023/08/08 14:40:32;;;;;;;1.88;0.30;;;;;;;;;;5078611;28;20492;-84